sensor_id;sensor_type;location;lat;lon;timestamp;P1;durP1;ratioP1;P2;durP2;ratioP2
73575;SDS011;61859;49.204;8.140;2023-04-15T00:01:24;3.23;;;1.67;;
73575;SDS011;61859;49.204;8.140;2023-04-15T00:03:50;3.53;;;1.80;;
73575;SDS011;61859;49.204;8.140;2023-04-15T00:06:17;4.90;;;1.90;;
73575;SDS011;61859;49.204;8.140;2023-04-15T00:08:43;4.13;;;2.00;;
73575;SDS011;61859;49.204;8.140;2023-04-15T00:11:09;7.73;;;2.30;;
73575;SDS011;61859;49.204;8.140;2023-04-15T00:13:35;2.87;;;1.60;;
73575;SDS011;61859;49.204;8.140;2023-04-15T00:16:01;4.40;;;1.80;;
73575;SDS011;61859;49.204;8.140;2023-04-15T00:18:26;2.83;;;1.97;;
73575;SDS011;61859;49.204;8.140;2023-04-15T00:20:53;3.57;;;1.80;;
73575;SDS011;61859;49.204;8.140;2023-04-15T00:23:19;2.53;;;1.50;;
73575;SDS011;61859;49.204;8.140;2023-04-15T00:25:44;6.63;;;1.93;;
73575;SDS011;61859;49.204;8.140;2023-04-15T00:28:10;2.10;;;1.73;;
73575;SDS011;61859;49.204;8.140;2023-04-15T00:30:36;4.27;;;1.80;;
73575;SDS011;61859;49.204;8.140;2023-04-15T00:33:02;4.73;;;1.80;;
73575;SDS011;61859;49.204;8.140;2023-04-15T00:35:27;2.50;;;1.80;;
73575;SDS011;61859;49.204;8.140;2023-04-15T00:37:53;3.83;;;1.80;;
73575;SDS011;61859;49.204;8.140;2023-04-15T00:40:19;5.40;;;2.00;;
73575;SDS011;61859;49.204;8.140;2023-04-15T00:42:45;2.40;;;1.93;;
73575;SDS011;61859;49.204;8.140;2023-04-15T00:45:11;2.13;;;1.50;;
73575;SDS011;61859;49.204;8.140;2023-04-15T00:47:37;2.23;;;1.60;;
73575;SDS011;61859;49.204;8.140;2023-04-15T00:50:05;4.03;;;1.70;;
73575;SDS011;61859;49.204;8.140;2023-04-15T00:52:31;4.70;;;1.70;;
73575;SDS011;61859;49.204;8.140;2023-04-15T00:54:57;2.77;;;1.60;;
73575;SDS011;61859;49.204;8.140;2023-04-15T00:57:23;5.77;;;1.60;;
73575;SDS011;61859;49.204;8.140;2023-04-15T00:59:51;2.73;;;1.97;;
73575;SDS011;61859;49.204;8.140;2023-04-15T01:02:17;4.40;;;1.70;;
73575;SDS011;61859;49.204;8.140;2023-04-15T01:04:43;3.03;;;1.47;;
73575;SDS011;61859;49.204;8.140;2023-04-15T01:07:09;3.43;;;1.80;;
73575;SDS011;61859;49.204;8.140;2023-04-15T01:09:34;7.23;;;1.77;;
73575;SDS011;61859;49.204;8.140;2023-04-15T01:12:00;3.80;;;1.70;;
73575;SDS011;61859;49.204;8.140;2023-04-15T01:14:26;2.10;;;1.47;;
73575;SDS011;61859;49.204;8.140;2023-04-15T01:16:53;3.47;;;1.47;;
73575;SDS011;61859;49.204;8.140;2023-04-15T01:19:18;2.13;;;1.30;;
73575;SDS011;61859;49.204;8.140;2023-04-15T01:21:44;1.50;;;1.40;;
73575;SDS011;61859;49.204;8.140;2023-04-15T01:24:10;3.37;;;1.70;;
73575;SDS011;61859;49.204;8.140;2023-04-15T01:26:37;3.77;;;2.03;;
73575;SDS011;61859;49.204;8.140;2023-04-15T01:29:03;1.67;;;1.57;;
73575;SDS011;61859;49.204;8.140;2023-04-15T01:31:28;5.10;;;1.80;;
73575;SDS011;61859;49.204;8.140;2023-04-15T01:33:54;2.03;;;1.40;;
73575;SDS011;61859;49.204;8.140;2023-04-15T01:36:20;3.20;;;1.47;;
73575;SDS011;61859;49.204;8.140;2023-04-15T01:38:45;3.37;;;1.73;;
73575;SDS011;61859;49.204;8.140;2023-04-15T01:41:12;2.50;;;1.47;;
73575;SDS011;61859;49.204;8.140;2023-04-15T01:43:38;4.57;;;2.23;;
73575;SDS011;61859;49.204;8.140;2023-04-15T01:46:03;1.60;;;1.50;;
73575;SDS011;61859;49.204;8.140;2023-04-15T01:48:30;2.13;;;1.57;;
73575;SDS011;61859;49.204;8.140;2023-04-15T01:50:56;2.57;;;1.30;;
73575;SDS011;61859;49.204;8.140;2023-04-15T01:53:23;3.03;;;1.67;;
73575;SDS011;61859;49.204;8.140;2023-04-15T01:55:49;3.17;;;1.93;;
73575;SDS011;61859;49.204;8.140;2023-04-15T01:58:15;4.07;;;1.60;;
73575;SDS011;61859;49.204;8.140;2023-04-15T02:00:41;2.03;;;1.40;;
73575;SDS011;61859;49.204;8.140;2023-04-15T02:03:07;2.27;;;1.73;;
73575;SDS011;61859;49.204;8.140;2023-04-15T02:05:33;2.77;;;1.53;;
73575;SDS011;61859;49.204;8.140;2023-04-15T02:07:59;8.40;;;1.70;;
73575;SDS011;61859;49.204;8.140;2023-04-15T02:10:25;6.47;;;1.50;;
73575;SDS011;61859;49.204;8.140;2023-04-15T02:12:51;3.27;;;1.30;;
73575;SDS011;61859;49.204;8.140;2023-04-15T02:15:18;3.30;;;1.33;;
73575;SDS011;61859;49.204;8.140;2023-04-15T02:17:44;3.13;;;1.30;;
73575;SDS011;61859;49.204;8.140;2023-04-15T02:20:14;2.37;;;1.43;;
73575;SDS011;61859;49.204;8.140;2023-04-15T02:22:43;1.70;;;1.47;;
73575;SDS011;61859;49.204;8.140;2023-04-15T02:25:09;2.37;;;1.70;;
73575;SDS011;61859;49.204;8.140;2023-04-15T02:27:35;3.73;;;1.50;;
73575;SDS011;61859;49.204;8.140;2023-04-15T02:30:01;1.77;;;1.37;;
73575;SDS011;61859;49.204;8.140;2023-04-15T02:32:27;1.77;;;1.10;;
73575;SDS011;61859;49.204;8.140;2023-04-15T02:34:53;1.63;;;1.00;;
73575;SDS011;61859;49.204;8.140;2023-04-15T02:37:18;2.07;;;1.40;;
73575;SDS011;61859;49.204;8.140;2023-04-15T02:39:44;1.90;;;1.37;;
73575;SDS011;61859;49.204;8.140;2023-04-15T02:42:10;2.77;;;1.50;;
73575;SDS011;61859;49.204;8.140;2023-04-15T02:44:37;1.80;;;1.70;;
73575;SDS011;61859;49.204;8.140;2023-04-15T02:47:02;2.90;;;1.77;;
73575;SDS011;61859;49.204;8.140;2023-04-15T02:49:30;1.83;;;1.40;;
73575;SDS011;61859;49.204;8.140;2023-04-15T02:51:55;2.07;;;1.53;;
73575;SDS011;61859;49.204;8.140;2023-04-15T02:54:22;1.60;;;1.50;;
73575;SDS011;61859;49.204;8.140;2023-04-15T02:56:48;2.17;;;1.60;;
73575;SDS011;61859;49.204;8.140;2023-04-15T02:59:14;3.97;;;1.60;;
73575;SDS011;61859;49.204;8.140;2023-04-15T03:01:40;1.57;;;1.40;;
73575;SDS011;61859;49.204;8.140;2023-04-15T03:04:06;1.87;;;1.23;;
73575;SDS011;61859;49.204;8.140;2023-04-15T03:06:32;3.30;;;1.30;;
73575;SDS011;61859;49.204;8.140;2023-04-15T03:08:58;1.53;;;1.20;;
73575;SDS011;61859;49.204;8.140;2023-04-15T03:11:24;1.60;;;1.17;;
73575;SDS011;61859;49.204;8.140;2023-04-15T03:13:51;2.53;;;1.07;;
73575;SDS011;61859;49.204;8.140;2023-04-15T03:16:17;1.50;;;1.40;;
73575;SDS011;61859;49.204;8.140;2023-04-15T03:18:42;3.50;;;1.47;;
73575;SDS011;61859;49.204;8.140;2023-04-15T03:21:08;2.47;;;1.60;;
73575;SDS011;61859;49.204;8.140;2023-04-15T03:23:33;3.30;;;1.50;;
73575;SDS011;61859;49.204;8.140;2023-04-15T03:26:02;3.97;;;1.30;;
73575;SDS011;61859;49.204;8.140;2023-04-15T03:28:28;4.33;;;1.40;;
73575;SDS011;61859;49.204;8.140;2023-04-15T03:30:54;3.50;;;1.77;;
73575;SDS011;61859;49.204;8.140;2023-04-15T03:33:20;2.77;;;1.43;;
73575;SDS011;61859;49.204;8.140;2023-04-15T03:35:46;3.07;;;1.70;;
73575;SDS011;61859;49.204;8.140;2023-04-15T03:38:11;3.87;;;1.10;;
73575;SDS011;61859;49.204;8.140;2023-04-15T03:40:40;3.53;;;1.80;;
73575;SDS011;61859;49.204;8.140;2023-04-15T03:43:06;4.03;;;1.70;;
73575;SDS011;61859;49.204;8.140;2023-04-15T03:45:31;2.00;;;1.40;;
73575;SDS011;61859;49.204;8.140;2023-04-15T03:47:57;4.77;;;1.60;;
73575;SDS011;61859;49.204;8.140;2023-04-15T03:50:23;2.93;;;1.60;;
73575;SDS011;61859;49.204;8.140;2023-04-15T03:52:48;3.37;;;1.60;;
73575;SDS011;61859;49.204;8.140;2023-04-15T03:55:14;2.50;;;1.37;;
73575;SDS011;61859;49.204;8.140;2023-04-15T03:57:40;2.13;;;1.70;;
73575;SDS011;61859;49.204;8.140;2023-04-15T04:00:06;2.33;;;1.60;;
73575;SDS011;61859;49.204;8.140;2023-04-15T04:02:36;3.50;;;1.70;;
73575;SDS011;61859;49.204;8.140;2023-04-15T04:05:01;2.87;;;1.80;;
73575;SDS011;61859;49.204;8.140;2023-04-15T04:07:27;2.40;;;1.37;;
73575;SDS011;61859;49.204;8.140;2023-04-15T04:09:53;1.47;;;1.20;;
73575;SDS011;61859;49.204;8.140;2023-04-15T04:12:18;4.13;;;1.53;;
73575;SDS011;61859;49.204;8.140;2023-04-15T04:14:44;1.83;;;1.43;;
73575;SDS011;61859;49.204;8.140;2023-04-15T04:17:09;5.23;;;1.87;;
73575;SDS011;61859;49.204;8.140;2023-04-15T04:19:35;2.57;;;1.60;;
73575;SDS011;61859;49.204;8.140;2023-04-15T04:22:01;1.47;;;1.30;;
73575;SDS011;61859;49.204;8.140;2023-04-15T04:24:26;4.17;;;1.70;;
73575;SDS011;61859;49.204;8.140;2023-04-15T04:26:52;2.53;;;1.70;;
73575;SDS011;61859;49.204;8.140;2023-04-15T04:29:17;4.17;;;1.97;;
73575;SDS011;61859;49.204;8.140;2023-04-15T04:31:43;5.03;;;2.00;;
73575;SDS011;61859;49.204;8.140;2023-04-15T04:34:08;2.33;;;1.87;;
73575;SDS011;61859;49.204;8.140;2023-04-15T04:36:34;1.83;;;1.20;;
73575;SDS011;61859;49.204;8.140;2023-04-15T04:38:59;2.63;;;1.87;;
73575;SDS011;61859;49.204;8.140;2023-04-15T04:41:25;2.83;;;1.80;;
73575;SDS011;61859;49.204;8.140;2023-04-15T04:43:51;4.77;;;2.37;;
73575;SDS011;61859;49.204;8.140;2023-04-15T04:46:16;3.00;;;1.97;;
73575;SDS011;61859;49.204;8.140;2023-04-15T04:48:42;4.40;;;2.20;;
73575;SDS011;61859;49.204;8.140;2023-04-15T04:51:08;2.00;;;1.57;;
73575;SDS011;61859;49.204;8.140;2023-04-15T04:53:34;5.50;;;2.20;;
73575;SDS011;61859;49.204;8.140;2023-04-15T04:56:01;2.43;;;2.13;;
73575;SDS011;61859;49.204;8.140;2023-04-15T04:58:27;4.20;;;2.10;;
73575;SDS011;61859;49.204;8.140;2023-04-15T05:00:52;2.53;;;2.03;;
73575;SDS011;61859;49.204;8.140;2023-04-15T05:03:18;4.90;;;2.30;;
73575;SDS011;61859;49.204;8.140;2023-04-15T05:05:44;3.37;;;1.80;;
73575;SDS011;61859;49.204;8.140;2023-04-15T05:08:09;3.80;;;1.87;;
73575;SDS011;61859;49.204;8.140;2023-04-15T05:10:35;3.13;;;2.13;;
73575;SDS011;61859;49.204;8.140;2023-04-15T05:13:00;4.23;;;2.20;;
73575;SDS011;61859;49.204;8.140;2023-04-15T05:15:26;4.03;;;2.23;;
73575;SDS011;61859;49.204;8.140;2023-04-15T05:17:52;2.63;;;1.80;;
73575;SDS011;61859;49.204;8.140;2023-04-15T05:20:17;4.00;;;1.90;;
73575;SDS011;61859;49.204;8.140;2023-04-15T05:22:43;2.93;;;2.00;;
73575;SDS011;61859;49.204;8.140;2023-04-15T05:25:08;3.83;;;2.03;;
73575;SDS011;61859;49.204;8.140;2023-04-15T05:27:34;3.50;;;2.80;;
73575;SDS011;61859;49.204;8.140;2023-04-15T05:30:00;4.07;;;1.93;;
73575;SDS011;61859;49.204;8.140;2023-04-15T05:32:25;4.10;;;2.23;;
73575;SDS011;61859;49.204;8.140;2023-04-15T05:34:51;3.87;;;1.93;;
73575;SDS011;61859;49.204;8.140;2023-04-15T05:37:16;3.93;;;2.20;;
73575;SDS011;61859;49.204;8.140;2023-04-15T05:39:44;9.40;;;2.70;;
73575;SDS011;61859;49.204;8.140;2023-04-15T05:42:10;5.33;;;2.33;;
73575;SDS011;61859;49.204;8.140;2023-04-15T05:44:36;5.03;;;2.20;;
73575;SDS011;61859;49.204;8.140;2023-04-15T05:47:01;3.13;;;2.00;;
73575;SDS011;61859;49.204;8.140;2023-04-15T05:49:27;4.10;;;2.03;;
73575;SDS011;61859;49.204;8.140;2023-04-15T05:51:53;2.73;;;2.20;;
73575;SDS011;61859;49.204;8.140;2023-04-15T05:54:18;4.10;;;2.30;;
73575;SDS011;61859;49.204;8.140;2023-04-15T05:56:45;3.67;;;2.37;;
73575;SDS011;61859;49.204;8.140;2023-04-15T05:59:11;3.67;;;2.00;;
73575;SDS011;61859;49.204;8.140;2023-04-15T06:01:37;4.10;;;2.27;;
73575;SDS011;61859;49.204;8.140;2023-04-15T06:04:02;3.03;;;1.83;;
73575;SDS011;61859;49.204;8.140;2023-04-15T06:06:28;1.57;;;1.47;;
73575;SDS011;61859;49.204;8.140;2023-04-15T06:08:53;4.23;;;1.60;;
73575;SDS011;61859;49.204;8.140;2023-04-15T06:11:20;2.47;;;1.90;;
73575;SDS011;61859;49.204;8.140;2023-04-15T06:13:46;6.10;;;2.63;;
73575;SDS011;61859;49.204;8.140;2023-04-15T06:16:11;2.47;;;1.80;;
73575;SDS011;61859;49.204;8.140;2023-04-15T06:18:37;4.57;;;1.90;;
73575;SDS011;61859;49.204;8.140;2023-04-15T06:21:03;2.73;;;1.70;;
73575;SDS011;61859;49.204;8.140;2023-04-15T06:23:29;5.60;;;1.97;;
73575;SDS011;61859;49.204;8.140;2023-04-15T06:25:55;4.57;;;2.10;;
73575;SDS011;61859;49.204;8.140;2023-04-15T06:28:20;3.97;;;2.20;;
73575;SDS011;61859;49.204;8.140;2023-04-15T06:30:46;5.57;;;2.40;;
73575;SDS011;61859;49.204;8.140;2023-04-15T06:33:11;5.37;;;2.17;;
73575;SDS011;61859;49.204;8.140;2023-04-15T06:35:37;4.00;;;2.20;;
73575;SDS011;61859;49.204;8.140;2023-04-15T06:38:03;5.57;;;2.70;;
73575;SDS011;61859;49.204;8.140;2023-04-15T06:40:29;3.77;;;2.30;;
73575;SDS011;61859;49.204;8.140;2023-04-15T06:42:55;5.10;;;2.50;;
73575;SDS011;61859;49.204;8.140;2023-04-15T06:45:20;5.80;;;2.60;;
73575;SDS011;61859;49.204;8.140;2023-04-15T06:47:46;2.40;;;2.00;;
73575;SDS011;61859;49.204;8.140;2023-04-15T06:50:11;3.53;;;2.50;;
73575;SDS011;61859;49.204;8.140;2023-04-15T06:52:37;3.23;;;2.30;;
73575;SDS011;61859;49.204;8.140;2023-04-15T06:55:03;4.43;;;2.63;;
73575;SDS011;61859;49.204;8.140;2023-04-15T06:57:29;4.73;;;2.33;;
73575;SDS011;61859;49.204;8.140;2023-04-15T06:59:55;4.37;;;2.17;;
73575;SDS011;61859;49.204;8.140;2023-04-15T07:02:20;3.10;;;2.30;;
73575;SDS011;61859;49.204;8.140;2023-04-15T07:04:46;5.07;;;2.40;;
73575;SDS011;61859;49.204;8.140;2023-04-15T07:07:12;4.47;;;2.63;;
73575;SDS011;61859;49.204;8.140;2023-04-15T07:09:39;3.20;;;2.60;;
73575;SDS011;61859;49.204;8.140;2023-04-15T07:12:04;10.13;;;3.03;;
73575;SDS011;61859;49.204;8.140;2023-04-15T07:14:30;2.70;;;2.27;;
73575;SDS011;61859;49.204;8.140;2023-04-15T07:16:55;4.23;;;2.57;;
73575;SDS011;61859;49.204;8.140;2023-04-15T07:19:21;5.43;;;2.57;;
73575;SDS011;61859;49.204;8.140;2023-04-15T07:21:47;3.77;;;2.27;;
73575;SDS011;61859;49.204;8.140;2023-04-15T07:24:13;2.97;;;2.20;;
73575;SDS011;61859;49.204;8.140;2023-04-15T07:26:42;7.57;;;2.30;;
73575;SDS011;61859;49.204;8.140;2023-04-15T07:29:08;4.47;;;2.60;;
73575;SDS011;61859;49.204;8.140;2023-04-15T07:31:34;4.97;;;3.40;;
73575;SDS011;61859;49.204;8.140;2023-04-15T07:34:00;6.07;;;2.67;;
73575;SDS011;61859;49.204;8.140;2023-04-15T07:36:27;4.90;;;2.50;;
73575;SDS011;61859;49.204;8.140;2023-04-15T07:38:53;4.40;;;2.50;;
73575;SDS011;61859;49.204;8.140;2023-04-15T07:41:19;6.83;;;2.83;;
73575;SDS011;61859;49.204;8.140;2023-04-15T07:43:45;5.03;;;2.97;;
73575;SDS011;61859;49.204;8.140;2023-04-15T07:46:12;4.33;;;2.57;;
73575;SDS011;61859;49.204;8.140;2023-04-15T07:48:37;5.27;;;2.70;;
73575;SDS011;61859;49.204;8.140;2023-04-15T07:51:03;3.77;;;2.93;;
73575;SDS011;61859;49.204;8.140;2023-04-15T07:53:29;9.47;;;3.53;;
73575;SDS011;61859;49.204;8.140;2023-04-15T07:55:55;4.20;;;2.43;;
73575;SDS011;61859;49.204;8.140;2023-04-15T07:58:21;6.30;;;2.80;;
73575;SDS011;61859;49.204;8.140;2023-04-15T08:00:46;3.80;;;2.60;;
73575;SDS011;61859;49.204;8.140;2023-04-15T08:03:12;4.50;;;2.93;;
73575;SDS011;61859;49.204;8.140;2023-04-15T08:05:39;6.03;;;2.67;;
73575;SDS011;61859;49.204;8.140;2023-04-15T08:08:05;6.70;;;3.03;;
73575;SDS011;61859;49.204;8.140;2023-04-15T08:10:31;3.73;;;2.80;;
73575;SDS011;61859;49.204;8.140;2023-04-15T08:12:56;8.07;;;3.07;;
73575;SDS011;61859;49.204;8.140;2023-04-15T08:15:22;3.63;;;2.70;;
73575;SDS011;61859;49.204;8.140;2023-04-15T08:17:48;4.43;;;2.50;;
73575;SDS011;61859;49.204;8.140;2023-04-15T08:20:13;4.57;;;2.80;;
73575;SDS011;61859;49.204;8.140;2023-04-15T08:22:39;3.97;;;2.70;;
73575;SDS011;61859;49.204;8.140;2023-04-15T08:25:05;5.67;;;2.73;;
73575;SDS011;61859;49.204;8.140;2023-04-15T08:27:31;7.07;;;2.50;;
73575;SDS011;61859;49.204;8.140;2023-04-15T08:29:56;3.83;;;2.50;;
73575;SDS011;61859;49.204;8.140;2023-04-15T08:32:22;5.13;;;2.90;;
73575;SDS011;61859;49.204;8.140;2023-04-15T08:34:50;5.33;;;2.67;;
73575;SDS011;61859;49.204;8.140;2023-04-15T08:37:15;4.33;;;2.70;;
73575;SDS011;61859;49.204;8.140;2023-04-15T08:39:41;3.23;;;2.47;;
73575;SDS011;61859;49.204;8.140;2023-04-15T08:42:10;5.80;;;2.93;;
73575;SDS011;61859;49.204;8.140;2023-04-15T08:44:40;3.50;;;2.47;;
73575;SDS011;61859;49.204;8.140;2023-04-15T08:47:07;3.77;;;2.33;;
73575;SDS011;61859;49.204;8.140;2023-04-15T08:49:34;3.53;;;2.70;;
73575;SDS011;61859;49.204;8.140;2023-04-15T08:52:03;5.23;;;2.60;;
73575;SDS011;61859;49.204;8.140;2023-04-15T08:54:30;4.57;;;2.63;;
73575;SDS011;61859;49.204;8.140;2023-04-15T08:56:56;3.73;;;2.33;;
73575;SDS011;61859;49.204;8.140;2023-04-15T08:59:22;3.80;;;2.50;;
73575;SDS011;61859;49.204;8.140;2023-04-15T09:01:51;4.23;;;2.70;;
73575;SDS011;61859;49.204;8.140;2023-04-15T09:04:17;5.03;;;2.60;;
73575;SDS011;61859;49.204;8.140;2023-04-15T09:06:43;5.53;;;2.90;;
73575;SDS011;61859;49.204;8.140;2023-04-15T09:09:08;5.63;;;2.73;;
73575;SDS011;61859;49.204;8.140;2023-04-15T09:11:34;4.57;;;2.63;;
73575;SDS011;61859;49.204;8.140;2023-04-15T09:14:00;3.73;;;2.60;;
73575;SDS011;61859;49.204;8.140;2023-04-15T09:16:26;4.93;;;2.10;;
73575;SDS011;61859;49.204;8.140;2023-04-15T09:18:52;5.27;;;2.80;;
73575;SDS011;61859;49.204;8.140;2023-04-15T09:21:18;4.63;;;2.40;;
73575;SDS011;61859;49.204;8.140;2023-04-15T09:23:54;5.73;;;2.80;;
73575;SDS011;61859;49.204;8.140;2023-04-15T09:26:31;5.50;;;2.70;;
73575;SDS011;61859;49.204;8.140;2023-04-15T09:29:19;2.90;;;2.13;;
73575;SDS011;61859;49.204;8.140;2023-04-15T09:31:48;3.83;;;2.80;;
73575;SDS011;61859;49.204;8.140;2023-04-15T09:34:13;5.13;;;2.73;;
73575;SDS011;61859;49.204;8.140;2023-04-15T09:36:53;3.90;;;2.60;;
73575;SDS011;61859;49.204;8.140;2023-04-15T09:39:21;4.73;;;2.60;;
73575;SDS011;61859;49.204;8.140;2023-04-15T09:42:02;5.93;;;2.63;;
73575;SDS011;61859;49.204;8.140;2023-04-15T09:44:29;3.30;;;2.60;;
73575;SDS011;61859;49.204;8.140;2023-04-15T09:46:55;4.07;;;2.80;;
73575;SDS011;61859;49.204;8.140;2023-04-15T09:49:20;5.43;;;2.87;;
73575;SDS011;61859;49.204;8.140;2023-04-15T09:51:47;7.20;;;2.97;;
73575;SDS011;61859;49.204;8.140;2023-04-15T09:54:13;4.03;;;3.03;;
73575;SDS011;61859;49.204;8.140;2023-04-15T09:56:44;3.53;;;2.90;;
73575;SDS011;61859;49.204;8.140;2023-04-15T09:59:10;2.83;;;2.60;;
73575;SDS011;61859;49.204;8.140;2023-04-15T10:01:36;4.27;;;2.57;;
73575;SDS011;61859;49.204;8.140;2023-04-15T10:04:05;4.37;;;2.63;;
73575;SDS011;61859;49.204;8.140;2023-04-15T10:06:30;3.27;;;2.50;;
73575;SDS011;61859;49.204;8.140;2023-04-15T10:08:57;5.93;;;2.40;;
73575;SDS011;61859;49.204;8.140;2023-04-15T10:11:23;5.57;;;3.30;;
73575;SDS011;61859;49.204;8.140;2023-04-15T10:13:52;3.10;;;2.80;;
73575;SDS011;61859;49.204;8.140;2023-04-15T10:16:18;5.47;;;2.80;;
73575;SDS011;61859;49.204;8.140;2023-04-15T10:18:46;5.07;;;3.40;;
73575;SDS011;61859;49.204;8.140;2023-04-15T10:21:15;3.77;;;3.43;;
73575;SDS011;61859;49.204;8.140;2023-04-15T10:23:45;5.07;;;3.53;;
73575;SDS011;61859;49.204;8.140;2023-04-15T10:26:11;6.40;;;3.00;;
73575;SDS011;61859;49.204;8.140;2023-04-15T10:28:39;4.23;;;3.07;;
73575;SDS011;61859;49.204;8.140;2023-04-15T10:31:05;3.60;;;2.50;;
73575;SDS011;61859;49.204;8.140;2023-04-15T10:33:31;4.83;;;2.70;;
73575;SDS011;61859;49.204;8.140;2023-04-15T10:35:58;5.93;;;3.10;;
73575;SDS011;61859;49.204;8.140;2023-04-15T10:43:52;3.13;;;2.37;;
73575;SDS011;61859;49.204;8.140;2023-04-15T10:46:22;4.23;;;2.40;;
73575;SDS011;61859;49.204;8.140;2023-04-15T10:48:59;2.67;;;1.90;;
73575;SDS011;61859;49.204;8.140;2023-04-15T10:51:36;3.27;;;2.00;;
73575;SDS011;61859;49.204;8.140;2023-04-15T10:54:07;2.60;;;1.80;;
73575;SDS011;61859;49.204;8.140;2023-04-15T10:56:37;3.33;;;2.00;;
73575;SDS011;61859;49.204;8.140;2023-04-15T10:59:06;2.93;;;1.57;;
73575;SDS011;61859;49.204;8.140;2023-04-15T11:12:50;2.17;;;1.67;;
73575;SDS011;61859;49.204;8.140;2023-04-15T11:15:30;2.50;;;2.00;;
73575;SDS011;61859;49.204;8.140;2023-04-15T11:17:58;3.33;;;1.60;;
73575;SDS011;61859;49.204;8.140;2023-04-15T11:20:32;3.10;;;1.60;;
73575;SDS011;61859;49.204;8.140;2023-04-15T11:22:58;3.50;;;1.70;;
73575;SDS011;61859;49.204;8.140;2023-04-15T11:25:24;1.67;;;1.40;;
73575;SDS011;61859;49.204;8.140;2023-04-15T11:27:51;2.07;;;1.60;;
73575;SDS011;61859;49.204;8.140;2023-04-15T11:30:19;2.57;;;1.60;;
73575;SDS011;61859;49.204;8.140;2023-04-15T11:32:46;3.77;;;1.80;;
73575;SDS011;61859;49.204;8.140;2023-04-15T11:35:12;3.80;;;2.20;;
73575;SDS011;61859;49.204;8.140;2023-04-15T11:37:38;2.67;;;1.80;;
73575;SDS011;61859;49.204;8.140;2023-04-15T11:40:03;2.77;;;1.63;;
73575;SDS011;61859;49.204;8.140;2023-04-15T11:42:32;3.57;;;1.80;;
73575;SDS011;61859;49.204;8.140;2023-04-15T11:45:10;2.37;;;1.60;;
73575;SDS011;61859;49.204;8.140;2023-04-15T11:47:38;2.63;;;2.00;;
73575;SDS011;61859;49.204;8.140;2023-04-15T11:50:17;3.50;;;1.90;;
73575;SDS011;61859;49.204;8.140;2023-04-15T11:52:56;2.88;;;1.77;;
73575;SDS011;61859;49.204;8.140;2023-04-15T11:55:23;2.20;;;1.75;;
73575;SDS011;61859;49.204;8.140;2023-04-15T11:58:04;2.38;;;2.00;;
73575;SDS011;61859;49.204;8.140;2023-04-15T12:00:32;2.83;;;2.10;;
73575;SDS011;61859;49.204;8.140;2023-04-15T12:13:58;3.83;;;1.75;;
73575;SDS011;61859;49.204;8.140;2023-04-15T12:16:51;2.95;;;1.83;;
73575;SDS011;61859;49.204;8.140;2023-04-15T12:19:37;2.95;;;1.70;;
73575;SDS011;61859;49.204;8.140;2023-04-15T12:22:09;2.15;;;1.95;;
73575;SDS011;61859;49.204;8.140;2023-04-15T12:24:37;3.13;;;1.90;;
73575;SDS011;61859;49.204;8.140;2023-04-15T12:27:04;3.20;;;1.90;;
73575;SDS011;61859;49.204;8.140;2023-04-15T12:29:31;2.30;;;1.70;;
73575;SDS011;61859;49.204;8.140;2023-04-15T12:32:02;2.87;;;1.70;;
73575;SDS011;61859;49.204;8.140;2023-04-15T12:34:33;4.30;;;1.80;;
73575;SDS011;61859;49.204;8.140;2023-04-15T12:37:09;1.93;;;1.60;;
73575;SDS011;61859;49.204;8.140;2023-04-15T12:39:39;5.03;;;1.70;;
73575;SDS011;61859;49.204;8.140;2023-04-15T12:42:06;1.00;;;0.90;;
73575;SDS011;61859;49.204;8.140;2023-04-15T12:44:32;4.67;;;1.20;;
73575;SDS011;61859;49.204;8.140;2023-04-15T12:46:58;3.83;;;1.40;;
73575;SDS011;61859;49.204;8.140;2023-04-15T12:49:24;2.77;;;1.20;;
73575;SDS011;61859;49.204;8.140;2023-04-15T12:51:51;1.93;;;1.10;;
73575;SDS011;61859;49.204;8.140;2023-04-15T12:54:18;1.57;;;1.10;;
73575;SDS011;61859;49.204;8.140;2023-04-15T12:56:45;2.87;;;0.90;;
73575;SDS011;61859;49.204;8.140;2023-04-15T12:59:11;1.37;;;1.20;;
73575;SDS011;61859;49.204;8.140;2023-04-15T13:01:38;2.67;;;1.70;;
73575;SDS011;61859;49.204;8.140;2023-04-15T13:04:03;2.57;;;2.00;;
73575;SDS011;61859;49.204;8.140;2023-04-15T13:06:29;3.10;;;2.23;;
73575;SDS011;61859;49.204;8.140;2023-04-15T13:08:57;4.30;;;2.40;;
73575;SDS011;61859;49.204;8.140;2023-04-15T13:11:26;4.30;;;2.17;;
73575;SDS011;61859;49.204;8.140;2023-04-15T13:13:54;4.30;;;2.07;;
73575;SDS011;61859;49.204;8.140;2023-04-15T13:16:21;4.30;;;2.20;;
73575;SDS011;61859;49.204;8.140;2023-04-15T13:18:47;3.03;;;2.33;;
73575;SDS011;61859;49.204;8.140;2023-04-15T13:21:13;3.10;;;2.43;;
73575;SDS011;61859;49.204;8.140;2023-04-15T13:23:42;7.90;;;2.33;;
73575;SDS011;61859;49.204;8.140;2023-04-15T13:26:07;4.37;;;2.10;;
73575;SDS011;61859;49.204;8.140;2023-04-15T13:28:33;3.47;;;2.17;;
73575;SDS011;61859;49.204;8.140;2023-04-15T13:30:59;3.57;;;2.50;;
73575;SDS011;61859;49.204;8.140;2023-04-15T13:33:25;5.03;;;2.33;;
73575;SDS011;61859;49.204;8.140;2023-04-15T13:35:51;3.77;;;2.57;;
73575;SDS011;61859;49.204;8.140;2023-04-15T13:38:18;4.50;;;2.33;;
73575;SDS011;61859;49.204;8.140;2023-04-15T13:40:43;3.53;;;2.40;;
73575;SDS011;61859;49.204;8.140;2023-04-15T13:43:09;3.47;;;1.97;;
73575;SDS011;61859;49.204;8.140;2023-04-15T13:45:35;4.63;;;2.67;;
73575;SDS011;61859;49.204;8.140;2023-04-15T13:48:01;5.57;;;2.50;;
73575;SDS011;61859;49.204;8.140;2023-04-15T13:50:27;3.33;;;2.60;;
73575;SDS011;61859;49.204;8.140;2023-04-15T13:52:52;2.73;;;2.00;;
73575;SDS011;61859;49.204;8.140;2023-04-15T13:55:18;2.73;;;2.33;;
73575;SDS011;61859;49.204;8.140;2023-04-15T13:57:44;3.30;;;1.80;;
73575;SDS011;61859;49.204;8.140;2023-04-15T14:00:10;4.80;;;2.20;;
73575;SDS011;61859;49.204;8.140;2023-04-15T14:02:36;5.23;;;1.40;;
73575;SDS011;61859;49.204;8.140;2023-04-15T14:05:01;4.70;;;1.80;;
73575;SDS011;61859;49.204;8.140;2023-04-15T14:07:28;2.43;;;1.30;;
73575;SDS011;61859;49.204;8.140;2023-04-15T14:09:54;2.17;;;1.40;;
73575;SDS011;61859;49.204;8.140;2023-04-15T14:12:20;1.33;;;1.03;;
73575;SDS011;61859;49.204;8.140;2023-04-15T14:14:45;1.83;;;1.33;;
73575;SDS011;61859;49.204;8.140;2023-04-15T14:17:11;3.03;;;1.20;;
73575;SDS011;61859;49.204;8.140;2023-04-15T14:19:36;2.23;;;0.90;;
73575;SDS011;61859;49.204;8.140;2023-04-15T14:22:02;3.40;;;1.10;;
73575;SDS011;61859;49.204;8.140;2023-04-15T14:24:27;3.07;;;0.90;;
73575;SDS011;61859;49.204;8.140;2023-04-15T14:26:53;1.40;;;1.13;;
73575;SDS011;61859;49.204;8.140;2023-04-15T14:29:19;2.30;;;1.20;;
73575;SDS011;61859;49.204;8.140;2023-04-15T14:31:44;2.57;;;1.20;;
73575;SDS011;61859;49.204;8.140;2023-04-15T14:34:10;4.20;;;1.47;;
73575;SDS011;61859;49.204;8.140;2023-04-15T14:36:36;1.43;;;1.10;;
73575;SDS011;61859;49.204;8.140;2023-04-15T14:39:02;1.87;;;1.00;;
73575;SDS011;61859;49.204;8.140;2023-04-15T14:41:28;1.00;;;0.70;;
73575;SDS011;61859;49.204;8.140;2023-04-15T14:43:54;1.37;;;0.90;;
73575;SDS011;61859;49.204;8.140;2023-04-15T14:46:20;1.10;;;0.90;;
73575;SDS011;61859;49.204;8.140;2023-04-15T14:48:46;1.93;;;0.70;;
73575;SDS011;61859;49.204;8.140;2023-04-15T14:51:12;1.13;;;0.60;;
73575;SDS011;61859;49.204;8.140;2023-04-15T14:53:37;1.07;;;0.70;;
73575;SDS011;61859;49.204;8.140;2023-04-15T14:56:03;2.40;;;0.53;;
73575;SDS011;61859;49.204;8.140;2023-04-15T14:58:29;5.80;;;0.90;;
73575;SDS011;61859;49.204;8.140;2023-04-15T15:00:54;1.07;;;0.60;;
73575;SDS011;61859;49.204;8.140;2023-04-15T15:03:20;1.83;;;0.80;;
73575;SDS011;61859;49.204;8.140;2023-04-15T15:05:47;0.70;;;0.63;;
73575;SDS011;61859;49.204;8.140;2023-04-15T15:08:12;0.57;;;0.57;;
73575;SDS011;61859;49.204;8.140;2023-04-15T15:10:38;2.10;;;0.60;;
73575;SDS011;61859;49.204;8.140;2023-04-15T15:13:05;2.00;;;0.80;;